Want Some Snow?

Take a look at this ob from BWI (Baltimore-Washington Airport) earlier today.

KBWI 102154Z COR 30016G30KT 1/4SM R10/3500V4500FT +SN BLSN BKN003 BKN012 OVC018  M06/M07 A2933 RMK AO2 PK WND 28032/2102 SLP934 SNINCR 2/35 P0002 T10561072=

The SNICR 2/35 means 2″ of snow in the last hour with 35″ on the ground!!!!!! That’s absolutely incredible for any northeast major city… but for Baltimore/Washington it’s unheard of.
Advertisements

Leave a Reply

Please log in using one of these methods to post your comment:

WordPress.com Logo

You are commenting using your WordPress.com account. Log Out / Change )

Twitter picture

You are commenting using your Twitter account. Log Out / Change )

Facebook photo

You are commenting using your Facebook account. Log Out / Change )

Google+ photo

You are commenting using your Google+ account. Log Out / Change )

Connecting to %s